sensor_id;sensor_type;location;lat;lon;timestamp;P1;durP1;ratioP1;P2;durP2;ratioP2
2756;SDS011;1386;50.862;6.494;2024-01-06T00:00:15;6.93;;;6.23;;
2756;SDS011;1386;50.862;6.494;2024-01-06T00:02:44;7.63;;;6.93;;
2756;SDS011;1386;50.862;6.494;2024-01-06T00:05:10;7.63;;;6.57;;
2756;SDS011;1386;50.862;6.494;2024-01-06T00:07:37;8.90;;;7.87;;
2756;SDS011;1386;50.862;6.494;2024-01-06T00:10:04;8.90;;;8.10;;
2756;SDS011;1386;50.862;6.494;2024-01-06T00:12:32;8.53;;;7.50;;
2756;SDS011;1386;50.862;6.494;2024-01-06T00:14:59;8.20;;;7.20;;
2756;SDS011;1386;50.862;6.494;2024-01-06T00:17:25;7.90;;;7.10;;
2756;SDS011;1386;50.862;6.494;2024-01-06T00:19:54;7.40;;;6.80;;
2756;SDS011;1386;50.862;6.494;2024-01-06T00:22:20;8.17;;;7.00;;
2756;SDS011;1386;50.862;6.494;2024-01-06T08:43:08;20.23;;;13.27;;
2756;SDS011;1386;50.862;6.494;2024-01-06T08:45:35;17.93;;;11.90;;
2756;SDS011;1386;50.862;6.494;2024-01-06T08:48:03;17.90;;;11.80;;
2756;SDS011;1386;50.862;6.494;2024-01-06T08:50:30;19.10;;;11.37;;
2756;SDS011;1386;50.862;6.494;2024-01-06T08:52:58;15.50;;;11.13;;
2756;SDS011;1386;50.862;6.494;2024-01-06T11:52:56;12.90;;;8.20;;
2756;SDS011;1386;50.862;6.494;2024-01-06T11:55:25;12.47;;;8.93;;
2756;SDS011;1386;50.862;6.494;2024-01-06T11:57:54;11.03;;;8.30;;
2756;SDS011;1386;50.862;6.494;2024-01-06T12:00:22;15.77;;;8.60;;
2756;SDS011;1386;50.862;6.494;2024-01-06T12:02:49;14.67;;;8.77;;
2756;SDS011;1386;50.862;6.494;2024-01-06T12:05:22;10.97;;;7.00;;
2756;SDS011;1386;50.862;6.494;2024-01-06T12:07:54;13.00;;;8.70;;
2756;SDS011;1386;50.862;6.494;2024-01-06T12:10:24;12.23;;;8.70;;
2756;SDS011;1386;50.862;6.494;2024-01-06T12:12:56;12.40;;;8.80;;
2756;SDS011;1386;50.862;6.494;2024-01-06T12:15:24;14.40;;;9.87;;
2756;SDS011;1386;50.862;6.494;2024-01-06T12:18:05;14.73;;;10.03;;
2756;SDS011;1386;50.862;6.494;2024-01-06T12:20:32;12.63;;;9.50;;
2756;SDS011;1386;50.862;6.494;2024-01-06T12:23:01;16.67;;;10.37;;
2756;SDS011;1386;50.862;6.494;2024-01-06T12:25:30;12.20;;;9.00;;
2756;SDS011;1386;50.862;6.494;2024-01-06T12:28:00;15.10;;;9.83;;
2756;SDS011;1386;50.862;6.494;2024-01-06T12:30:30;16.63;;;11.40;;
2756;SDS011;1386;50.862;6.494;2024-01-06T12:33:12;20.63;;;13.23;;
2756;SDS011;1386;50.862;6.494;2024-01-06T13:12:54;17.93;;;11.33;;
2756;SDS011;1386;50.862;6.494;2024-01-06T13:15:26;15.87;;;10.70;;
2756;SDS011;1386;50.862;6.494;2024-01-06T13:17:53;14.47;;;10.03;;
2756;SDS011;1386;50.862;6.494;2024-01-06T13:20:35;20.53;;;11.70;;
2756;SDS011;1386;50.862;6.494;2024-01-06T13:23:03;19.60;;;12.97;;
2756;SDS011;1386;50.862;6.494;2024-01-06T13:25:31;18.93;;;12.83;;
2756;SDS011;1386;50.862;6.494;2024-01-06T13:35:02;20.93;;;13.83;;
2756;SDS011;1386;50.862;6.494;2024-01-06T13:37:47;20.07;;;11.73;;
2756;SDS011;1386;50.862;6.494;2024-01-06T13:44:10;26.63;;;14.60;;
2756;SDS011;1386;50.862;6.494;2024-01-06T13:46:37;23.50;;;14.40;;
2756;SDS011;1386;50.862;6.494;2024-01-06T13:49:07;19.67;;;12.97;;
2756;SDS011;1386;50.862;6.494;2024-01-06T13:51:34;21.83;;;14.47;;
2756;SDS011;1386;50.862;6.494;2024-01-06T13:54:01;22.17;;;13.23;;
2756;SDS011;1386;50.862;6.494;2024-01-06T13:56:28;16.57;;;11.20;;
2756;SDS011;1386;50.862;6.494;2024-01-06T13:58:55;20.93;;;12.10;;
2756;SDS011;1386;50.862;6.494;2024-01-06T14:01:23;19.20;;;12.50;;
2756;SDS011;1386;50.862;6.494;2024-01-06T14:03:50;18.70;;;11.13;;
2756;SDS011;1386;50.862;6.494;2024-01-06T14:06:24;17.77;;;11.97;;
2756;SDS011;1386;50.862;6.494;2024-01-06T14:08:54;24.90;;;12.27;;
2756;SDS011;1386;50.862;6.494;2024-01-06T14:11:21;17.23;;;11.50;;
2756;SDS011;1386;50.862;6.494;2024-01-06T14:13:49;18.77;;;11.67;;
2756;SDS011;1386;50.862;6.494;2024-01-06T14:16:16;19.30;;;12.93;;
2756;SDS011;1386;50.862;6.494;2024-01-06T14:18:44;15.93;;;11.40;;
2756;SDS011;1386;50.862;6.494;2024-01-06T14:21:11;18.17;;;11.33;;
2756;SDS011;1386;50.862;6.494;2024-01-06T14:23:41;20.07;;;14.20;;
2756;SDS011;1386;50.862;6.494;2024-01-06T14:26:08;19.40;;;13.20;;
2756;SDS011;1386;50.862;6.494;2024-01-06T14:28:35;22.53;;;14.07;;
2756;SDS011;1386;50.862;6.494;2024-01-06T14:31:02;23.67;;;14.43;;
2756;SDS011;1386;50.862;6.494;2024-01-06T14:33:40;21.70;;;13.87;;
2756;SDS011;1386;50.862;6.494;2024-01-06T14:36:07;21.90;;;14.30;;
2756;SDS011;1386;50.862;6.494;2024-01-06T14:38:34;21.53;;;13.73;;
2756;SDS011;1386;50.862;6.494;2024-01-06T14:41:02;23.00;;;13.90;;
2756;SDS011;1386;50.862;6.494;2024-01-06T14:43:30;21.70;;;13.40;;
2756;SDS011;1386;50.862;6.494;2024-01-06T14:45:57;18.70;;;12.23;;
2756;SDS011;1386;50.862;6.494;2024-01-06T14:48:24;19.83;;;12.50;;
2756;SDS011;1386;50.862;6.494;2024-01-06T14:50:51;20.30;;;12.00;;
2756;SDS011;1386;50.862;6.494;2024-01-06T14:53:18;19.10;;;12.00;;
2756;SDS011;1386;50.862;6.494;2024-01-06T14:55:45;20.73;;;12.40;;
2756;SDS011;1386;50.862;6.494;2024-01-06T14:58:13;18.60;;;11.97;;
2756;SDS011;1386;50.862;6.494;2024-01-06T15:00:40;17.37;;;11.50;;
2756;SDS011;1386;50.862;6.494;2024-01-06T15:03:08;16.83;;;11.00;;
2756;SDS011;1386;50.862;6.494;2024-01-06T15:05:35;23.80;;;14.77;;
2756;SDS011;1386;50.862;6.494;2024-01-06T15:08:02;22.60;;;13.17;;
2756;SDS011;1386;50.862;6.494;2024-01-06T15:10:29;19.30;;;13.27;;
2756;SDS011;1386;50.862;6.494;2024-01-06T15:12:56;21.50;;;14.20;;
2756;SDS011;1386;50.862;6.494;2024-01-06T15:15:25;22.77;;;15.60;;
2756;SDS011;1386;50.862;6.494;2024-01-06T15:17:52;19.27;;;13.47;;
2756;SDS011;1386;50.862;6.494;2024-01-06T15:20:19;20.13;;;12.43;;
2756;SDS011;1386;50.862;6.494;2024-01-06T15:22:55;18.17;;;11.37;;
2756;SDS011;1386;50.862;6.494;2024-01-06T15:25:22;18.33;;;12.47;;
2756;SDS011;1386;50.862;6.494;2024-01-06T15:27:49;16.63;;;12.67;;
2756;SDS011;1386;50.862;6.494;2024-01-06T15:30:16;21.73;;;14.83;;
2756;SDS011;1386;50.862;6.494;2024-01-06T15:32:44;22.00;;;12.87;;
2756;SDS011;1386;50.862;6.494;2024-01-06T15:35:12;17.77;;;12.33;;
2756;SDS011;1386;50.862;6.494;2024-01-06T15:37:39;18.50;;;12.20;;
2756;SDS011;1386;50.862;6.494;2024-01-06T15:40:06;16.07;;;11.43;;
2756;SDS011;1386;50.862;6.494;2024-01-06T15:42:34;17.73;;;12.50;;
2756;SDS011;1386;50.862;6.494;2024-01-06T15:45:01;15.53;;;11.47;;
2756;SDS011;1386;50.862;6.494;2024-01-06T15:47:28;19.43;;;12.70;;
2756;SDS011;1386;50.862;6.494;2024-01-06T15:49:56;18.40;;;12.83;;
2756;SDS011;1386;50.862;6.494;2024-01-06T15:52:23;18.37;;;11.80;;
2756;SDS011;1386;50.862;6.494;2024-01-06T15:54:50;20.50;;;12.70;;
2756;SDS011;1386;50.862;6.494;2024-01-06T15:57:18;18.83;;;12.33;;
2756;SDS011;1386;50.862;6.494;2024-01-06T15:59:45;18.43;;;12.23;;
2756;SDS011;1386;50.862;6.494;2024-01-06T16:02:12;19.00;;;12.30;;
2756;SDS011;1386;50.862;6.494;2024-01-06T16:04:39;21.13;;;12.90;;
2756;SDS011;1386;50.862;6.494;2024-01-06T16:07:08;17.40;;;12.93;;
2756;SDS011;1386;50.862;6.494;2024-01-06T16:09:35;22.03;;;13.30;;
2756;SDS011;1386;50.862;6.494;2024-01-06T16:12:02;21.17;;;12.67;;
2756;SDS011;1386;50.862;6.494;2024-01-06T16:14:31;18.87;;;11.87;;
2756;SDS011;1386;50.862;6.494;2024-01-06T16:16:58;19.90;;;12.10;;
2756;SDS011;1386;50.862;6.494;2024-01-06T16:19:25;19.30;;;12.80;;
2756;SDS011;1386;50.862;6.494;2024-01-06T16:21:52;19.43;;;12.27;;
2756;SDS011;1386;50.862;6.494;2024-01-06T16:24:21;20.60;;;12.97;;
2756;SDS011;1386;50.862;6.494;2024-01-06T16:26:51;19.60;;;11.07;;
2756;SDS011;1386;50.862;6.494;2024-01-06T16:29:18;17.53;;;11.37;;
2756;SDS011;1386;50.862;6.494;2024-01-06T16:31:45;13.93;;;10.27;;
2756;SDS011;1386;50.862;6.494;2024-01-06T16:34:12;17.57;;;11.60;;
2756;SDS011;1386;50.862;6.494;2024-01-06T16:36:39;20.43;;;12.30;;
2756;SDS011;1386;50.862;6.494;2024-01-06T16:39:07;18.63;;;11.87;;
2756;SDS011;1386;50.862;6.494;2024-01-06T16:41:35;18.10;;;12.57;;
2756;SDS011;1386;50.862;6.494;2024-01-06T16:44:03;19.90;;;11.50;;
2756;SDS011;1386;50.862;6.494;2024-01-06T16:46:30;24.30;;;13.90;;
2756;SDS011;1386;50.862;6.494;2024-01-06T16:48:57;17.80;;;12.90;;
2756;SDS011;1386;50.862;6.494;2024-01-06T16:51:24;19.60;;;11.33;;
2756;SDS011;1386;50.862;6.494;2024-01-06T16:53:51;20.47;;;12.27;;
2756;SDS011;1386;50.862;6.494;2024-01-06T16:56:18;17.80;;;11.20;;
2756;SDS011;1386;50.862;6.494;2024-01-06T16:58:46;18.83;;;11.50;;
2756;SDS011;1386;50.862;6.494;2024-01-06T17:01:13;22.90;;;13.20;;
2756;SDS011;1386;50.862;6.494;2024-01-06T17:03:41;18.10;;;11.37;;
2756;SDS011;1386;50.862;6.494;2024-01-06T17:06:08;19.03;;;11.80;;
2756;SDS011;1386;50.862;6.494;2024-01-06T17:08:37;16.33;;;10.83;;
2756;SDS011;1386;50.862;6.494;2024-01-06T17:11:05;18.40;;;10.77;;
2756;SDS011;1386;50.862;6.494;2024-01-06T17:13:32;18.30;;;11.60;;
2756;SDS011;1386;50.862;6.494;2024-01-06T17:16:01;16.83;;;10.60;;
2756;SDS011;1386;50.862;6.494;2024-01-06T17:18:28;16.17;;;11.10;;
2756;SDS011;1386;50.862;6.494;2024-01-06T17:20:55;17.30;;;11.00;;
2756;SDS011;1386;50.862;6.494;2024-01-06T17:23:22;17.57;;;12.03;;
2756;SDS011;1386;50.862;6.494;2024-01-06T17:25:49;14.20;;;9.40;;
2756;SDS011;1386;50.862;6.494;2024-01-06T17:28:16;17.20;;;10.87;;
2756;SDS011;1386;50.862;6.494;2024-01-06T17:30:43;14.77;;;9.80;;
2756;SDS011;1386;50.862;6.494;2024-01-06T17:33:12;14.63;;;9.90;;
2756;SDS011;1386;50.862;6.494;2024-01-06T17:35:39;14.87;;;10.63;;
2756;SDS011;1386;50.862;6.494;2024-01-06T17:38:06;13.13;;;10.23;;
2756;SDS011;1386;50.862;6.494;2024-01-06T17:40:33;15.07;;;10.90;;
2756;SDS011;1386;50.862;6.494;2024-01-06T17:43:00;12.20;;;9.63;;
2756;SDS011;1386;50.862;6.494;2024-01-06T17:45:27;16.00;;;10.47;;
2756;SDS011;1386;50.862;6.494;2024-01-06T17:47:54;14.90;;;9.83;;
2756;SDS011;1386;50.862;6.494;2024-01-06T17:50:22;12.10;;;9.27;;
2756;SDS011;1386;50.862;6.494;2024-01-06T17:52:49;13.07;;;10.03;;
2756;SDS011;1386;50.862;6.494;2024-01-06T17:55:17;13.90;;;9.77;;
2756;SDS011;1386;50.862;6.494;2024-01-06T17:57:44;13.47;;;10.07;;
2756;SDS011;1386;50.862;6.494;2024-01-06T18:00:11;15.03;;;9.53;;
2756;SDS011;1386;50.862;6.494;2024-01-06T18:02:39;14.83;;;11.00;;
2756;SDS011;1386;50.862;6.494;2024-01-06T18:05:07;18.00;;;11.27;;
2756;SDS011;1386;50.862;6.494;2024-01-06T18:07:36;14.53;;;10.80;;
2756;SDS011;1386;50.862;6.494;2024-01-06T18:10:03;17.93;;;12.07;;
2756;SDS011;1386;50.862;6.494;2024-01-06T18:12:31;16.50;;;11.20;;
2756;SDS011;1386;50.862;6.494;2024-01-06T18:14:58;16.40;;;11.40;;
2756;SDS011;1386;50.862;6.494;2024-01-06T18:17:27;16.50;;;11.20;;
2756;SDS011;1386;50.862;6.494;2024-01-06T18:20:01;14.67;;;12.00;;
2756;SDS011;1386;50.862;6.494;2024-01-06T18:22:30;17.97;;;12.73;;
2756;SDS011;1386;50.862;6.494;2024-01-06T18:24:58;19.47;;;12.77;;
2756;SDS011;1386;50.862;6.494;2024-01-06T18:27:25;22.43;;;14.53;;
2756;SDS011;1386;50.862;6.494;2024-01-06T18:29:52;23.60;;;14.50;;
2756;SDS011;1386;50.862;6.494;2024-01-06T18:32:19;23.90;;;14.77;;
2756;SDS011;1386;50.862;6.494;2024-01-06T18:34:47;21.60;;;14.33;;
2756;SDS011;1386;50.862;6.494;2024-01-06T18:37:14;22.80;;;14.87;;
2756;SDS011;1386;50.862;6.494;2024-01-06T18:39:41;21.10;;;15.50;;
2756;SDS011;1386;50.862;6.494;2024-01-06T18:42:10;25.70;;;15.23;;
2756;SDS011;1386;50.862;6.494;2024-01-06T18:44:38;23.40;;;16.43;;
2756;SDS011;1386;50.862;6.494;2024-01-06T18:47:06;20.20;;;15.30;;
2756;SDS011;1386;50.862;6.494;2024-01-06T18:49:36;24.13;;;17.60;;
2756;SDS011;1386;50.862;6.494;2024-01-06T18:52:03;26.00;;;18.00;;
2756;SDS011;1386;50.862;6.494;2024-01-06T18:54:30;28.73;;;18.87;;
2756;SDS011;1386;50.862;6.494;2024-01-06T18:56:58;23.53;;;16.80;;
2756;SDS011;1386;50.862;6.494;2024-01-06T18:59:27;29.37;;;18.10;;
2756;SDS011;1386;50.862;6.494;2024-01-06T19:01:54;24.33;;;15.60;;
2756;SDS011;1386;50.862;6.494;2024-01-06T19:04:22;24.83;;;17.80;;
2756;SDS011;1386;50.862;6.494;2024-01-06T19:06:49;24.93;;;17.20;;
2756;SDS011;1386;50.862;6.494;2024-01-06T19:09:17;26.43;;;17.57;;
2756;SDS011;1386;50.862;6.494;2024-01-06T19:11:44;26.10;;;17.23;;
2756;SDS011;1386;50.862;6.494;2024-01-06T19:14:11;26.33;;;17.47;;
2756;SDS011;1386;50.862;6.494;2024-01-06T19:16:53;25.50;;;16.60;;
2756;SDS011;1386;50.862;6.494;2024-01-06T19:19:20;26.67;;;16.53;;
2756;SDS011;1386;50.862;6.494;2024-01-06T19:21:47;20.70;;;15.83;;
2756;SDS011;1386;50.862;6.494;2024-01-06T19:24:14;24.40;;;17.03;;
2756;SDS011;1386;50.862;6.494;2024-01-06T19:26:41;22.57;;;16.70;;
2756;SDS011;1386;50.862;6.494;2024-01-06T19:29:08;25.30;;;16.93;;
2756;SDS011;1386;50.862;6.494;2024-01-06T19:31:35;20.90;;;15.27;;
2756;SDS011;1386;50.862;6.494;2024-01-06T19:34:03;22.03;;;16.43;;
2756;SDS011;1386;50.862;6.494;2024-01-06T19:36:31;23.13;;;16.43;;
2756;SDS011;1386;50.862;6.494;2024-01-06T19:38:58;22.00;;;15.43;;
2756;SDS011;1386;50.862;6.494;2024-01-06T19:41:25;22.50;;;16.00;;
2756;SDS011;1386;50.862;6.494;2024-01-06T19:43:53;24.93;;;15.80;;
2756;SDS011;1386;50.862;6.494;2024-01-06T19:46:21;25.83;;;16.43;;
2756;SDS011;1386;50.862;6.494;2024-01-06T19:48:48;23.40;;;14.93;;
2756;SDS011;1386;50.862;6.494;2024-01-06T19:51:16;22.73;;;15.40;;
2756;SDS011;1386;50.862;6.494;2024-01-06T19:53:43;19.70;;;14.43;;
2756;SDS011;1386;50.862;6.494;2024-01-06T19:56:12;23.77;;;15.53;;
2756;SDS011;1386;50.862;6.494;2024-01-06T19:58:40;19.37;;;14.97;;
2756;SDS011;1386;50.862;6.494;2024-01-06T20:01:07;25.30;;;16.30;;
2756;SDS011;1386;50.862;6.494;2024-01-06T20:03:34;20.63;;;16.47;;
2756;SDS011;1386;50.862;6.494;2024-01-06T20:06:02;22.33;;;16.17;;
2756;SDS011;1386;50.862;6.494;2024-01-06T20:08:30;22.07;;;15.57;;
2756;SDS011;1386;50.862;6.494;2024-01-06T20:10:59;25.87;;;16.53;;
2756;SDS011;1386;50.862;6.494;2024-01-06T20:13:26;22.53;;;15.90;;
2756;SDS011;1386;50.862;6.494;2024-01-06T20:15:53;24.50;;;16.40;;
2756;SDS011;1386;50.862;6.494;2024-01-06T20:18:21;23.60;;;16.90;;
2756;SDS011;1386;50.862;6.494;2024-01-06T20:20:48;23.67;;;15.90;;
2756;SDS011;1386;50.862;6.494;2024-01-06T20:23:15;25.90;;;16.43;;
2756;SDS011;1386;50.862;6.494;2024-01-06T20:25:44;25.30;;;16.30;;
2756;SDS011;1386;50.862;6.494;2024-01-06T20:28:11;26.27;;;15.30;;
2756;SDS011;1386;50.862;6.494;2024-01-06T20:30:38;24.80;;;16.43;;
2756;SDS011;1386;50.862;6.494;2024-01-06T20:33:05;24.60;;;17.43;;
2756;SDS011;1386;50.862;6.494;2024-01-06T20:35:32;21.40;;;15.63;;
2756;SDS011;1386;50.862;6.494;2024-01-06T20:38:00;23.27;;;14.80;;
2756;SDS011;1386;50.862;6.494;2024-01-06T20:40:27;18.20;;;13.37;;
2756;SDS011;1386;50.862;6.494;2024-01-06T20:42:55;20.07;;;13.93;;
2756;SDS011;1386;50.862;6.494;2024-01-06T20:45:22;22.03;;;14.37;;
2756;SDS011;1386;50.862;6.494;2024-01-06T20:47:49;24.07;;;16.03;;
2756;SDS011;1386;50.862;6.494;2024-01-06T20:50:16;22.30;;;16.07;;
2756;SDS011;1386;50.862;6.494;2024-01-06T20:52:44;27.93;;;16.73;;
2756;SDS011;1386;50.862;6.494;2024-01-06T20:55:12;26.67;;;16.10;;
2756;SDS011;1386;50.862;6.494;2024-01-06T20:57:39;25.07;;;17.13;;
2756;SDS011;1386;50.862;6.494;2024-01-06T21:00:08;25.30;;;16.70;;
2756;SDS011;1386;50.862;6.494;2024-01-06T21:02:35;24.80;;;17.27;;
2756;SDS011;1386;50.862;6.494;2024-01-06T21:05:02;27.40;;;16.37;;
2756;SDS011;1386;50.862;6.494;2024-01-06T21:07:29;24.53;;;16.50;;
2756;SDS011;1386;50.862;6.494;2024-01-06T21:09:57;24.40;;;16.80;;
2756;SDS011;1386;50.862;6.494;2024-01-06T21:12:25;25.37;;;15.90;;
2756;SDS011;1386;50.862;6.494;2024-01-06T21:14:52;23.50;;;14.27;;
2756;SDS011;1386;50.862;6.494;2024-01-06T21:17:21;22.33;;;16.60;;
2756;SDS011;1386;50.862;6.494;2024-01-06T21:19:48;22.17;;;14.13;;
2756;SDS011;1386;50.862;6.494;2024-01-06T21:22:15;19.70;;;14.57;;
2756;SDS011;1386;50.862;6.494;2024-01-06T21:24:44;21.23;;;15.80;;
2756;SDS011;1386;50.862;6.494;2024-01-06T21:27:11;22.60;;;16.67;;
2756;SDS011;1386;50.862;6.494;2024-01-06T21:29:38;19.87;;;15.67;;
2756;SDS011;1386;50.862;6.494;2024-01-06T21:32:05;17.90;;;13.93;;
2756;SDS011;1386;50.862;6.494;2024-01-06T21:34:34;26.20;;;15.63;;
2756;SDS011;1386;50.862;6.494;2024-01-06T21:37:02;19.70;;;15.33;;
2756;SDS011;1386;50.862;6.494;2024-01-06T21:39:29;22.63;;;14.13;;
2756;SDS011;1386;50.862;6.494;2024-01-06T21:41:56;20.93;;;14.93;;
2756;SDS011;1386;50.862;6.494;2024-01-06T21:44:23;22.57;;;14.87;;
2756;SDS011;1386;50.862;6.494;2024-01-06T21:46:50;22.20;;;16.40;;
2756;SDS011;1386;50.862;6.494;2024-01-06T21:49:17;20.80;;;15.20;;
2756;SDS011;1386;50.862;6.494;2024-01-06T21:51:49;25.03;;;15.20;;
2756;SDS011;1386;50.862;6.494;2024-01-06T21:54:18;17.83;;;14.03;;
2756;SDS011;1386;50.862;6.494;2024-01-06T21:56:46;19.73;;;15.33;;
2756;SDS011;1386;50.862;6.494;2024-01-06T21:59:13;20.20;;;14.73;;
2756;SDS011;1386;50.862;6.494;2024-01-06T22:01:40;19.40;;;13.80;;
2756;SDS011;1386;50.862;6.494;2024-01-06T22:04:08;19.60;;;13.83;;
2756;SDS011;1386;50.862;6.494;2024-01-06T22:06:36;22.17;;;15.18;;
2756;SDS011;1386;50.862;6.494;2024-01-06T22:09:09;25.13;;;16.67;;
2756;SDS011;1386;50.862;6.494;2024-01-06T22:11:50;24.20;;;14.37;;
2756;SDS011;1386;50.862;6.494;2024-01-06T22:14:17;21.67;;;15.17;;
2756;SDS011;1386;50.862;6.494;2024-01-06T22:16:43;21.90;;;14.80;;
2756;SDS011;1386;50.862;6.494;2024-01-06T22:19:10;21.97;;;14.93;;
2756;SDS011;1386;50.862;6.494;2024-01-06T22:21:39;18.10;;;13.80;;
2756;SDS011;1386;50.862;6.494;2024-01-06T22:24:08;21.03;;;13.73;;
2756;SDS011;1386;50.862;6.494;2024-01-06T22:26:35;21.13;;;14.70;;
2756;SDS011;1386;50.862;6.494;2024-01-06T22:29:02;21.23;;;15.20;;
2756;SDS011;1386;50.862;6.494;2024-01-06T22:31:28;23.90;;;15.60;;
2756;SDS011;1386;50.862;6.494;2024-01-06T22:33:55;20.60;;;14.33;;
2756;SDS011;1386;50.862;6.494;2024-01-06T22:36:23;25.63;;;15.30;;
2756;SDS011;1386;50.862;6.494;2024-01-06T22:38:50;22.93;;;15.60;;
2756;SDS011;1386;50.862;6.494;2024-01-06T22:41:19;21.23;;;14.83;;
2756;SDS011;1386;50.862;6.494;2024-01-06T22:43:46;25.30;;;16.00;;
2756;SDS011;1386;50.862;6.494;2024-01-06T22:46:13;24.83;;;15.47;;
